createdAt,value
2022-10-04T00:00:46.085Z,2.23
2022-10-04T00:03:25.444Z,2.10
2022-10-04T00:05:56.167Z,1.80
2022-10-04T00:08:30.885Z,2.00
2022-10-04T00:11:05.043Z,2.17
2022-10-04T00:13:33.580Z,1.90
2022-10-04T00:16:00.399Z,2.40
2022-10-04T00:18:47.242Z,1.87
2022-10-04T00:21:13.820Z,1.60
2022-10-04T00:23:43.552Z,1.90
2022-10-04T00:26:25.326Z,1.67
2022-10-04T00:28:52.452Z,1.80
2022-10-04T00:31:20.751Z,1.50
2022-10-04T00:33:58.449Z,2.13
2022-10-04T00:36:24.925Z,1.97
2022-10-04T00:39:09.424Z,2.07
2022-10-04T00:41:47.045Z,2.10
2022-10-04T00:44:34.998Z,2.23
2022-10-04T00:47:05.006Z,1.90
2022-10-04T00:49:40.321Z,1.70
2022-10-04T00:52:22.671Z,1.47
2022-10-04T00:54:57.137Z,1.77
2022-10-04T00:57:32.802Z,1.93
2022-10-04T01:00:03.926Z,1.80
2022-10-04T01:02:42.777Z,1.70
2022-10-04T01:05:18.093Z,1.77
2022-10-04T01:07:52.872Z,2.10
2022-10-04T01:10:22.276Z,1.33
2022-10-04T01:13:09.671Z,1.80
2022-10-04T01:15:53.341Z,1.67
2022-10-04T01:18:29.098Z,2.13
2022-10-04T01:21:18.614Z,1.63
2022-10-04T01:23:46.552Z,1.93
2022-10-04T01:26:32.279Z,1.90
2022-10-04T01:29:24.967Z,1.90
2022-10-04T01:31:54.107Z,2.10
2022-10-04T01:34:26.582Z,1.73
2022-10-04T01:37:00.377Z,1.73
2022-10-04T01:39:28.575Z,1.77
2022-10-04T01:42:08.977Z,2.33
2022-10-04T01:44:57.045Z,1.50
2022-10-04T01:47:45.231Z,1.80
2022-10-04T01:50:18.960Z,1.57
2022-10-04T01:52:54.173Z,1.40
2022-10-04T01:55:25.527Z,1.60
2022-10-04T01:58:08.675Z,1.90
2022-10-04T02:00:40.926Z,1.40
2022-10-04T02:03:18.756Z,1.83
2022-10-04T02:05:54.412Z,2.17
2022-10-04T02:08:31.366Z,1.73
2022-10-04T02:10:59.648Z,2.07
2022-10-04T02:13:29.808Z,2.20
2022-10-04T02:15:58.166Z,1.87
2022-10-04T02:18:26.881Z,1.80
2022-10-04T02:20:55.009Z,2.03
2022-10-04T02:23:22.869Z,1.70
2022-10-04T02:25:49.566Z,2.07
2022-10-04T02:28:18.202Z,2.10
2022-10-04T02:31:09.866Z,2.00
2022-10-04T02:33:46.791Z,2.20
2022-10-04T02:36:14.490Z,1.50
2022-10-04T02:42:35.388Z,2.00
2022-10-04T02:45:19.956Z,1.67
2022-10-04T02:48:02.222Z,1.70
2022-10-04T02:50:39.998Z,1.77
2022-10-04T02:53:22.328Z,2.27
2022-10-04T02:55:49.282Z,1.83
2022-10-04T02:58:20.088Z,2.00
2022-10-04T03:00:50.565Z,1.90
2022-10-04T03:03:23.432Z,1.50
2022-10-04T03:06:15.570Z,1.90
2022-10-04T03:08:48.727Z,2.13
2022-10-04T03:11:16.405Z,2.20
2022-10-04T03:13:48.292Z,1.73
2022-10-04T03:16:15.718Z,2.13
2022-10-04T03:18:43.919Z,2.07
2022-10-04T03:21:14.499Z,2.40
2022-10-04T03:23:42.252Z,1.80
2022-10-04T03:26:21.425Z,2.03
2022-10-04T03:28:48.231Z,1.70
2022-10-04T03:31:15.795Z,1.97
2022-10-04T03:33:44.170Z,1.77
2022-10-04T03:36:17.005Z,2.23
2022-10-04T03:38:46.421Z,2.30
2022-10-04T03:41:14.525Z,1.90
2022-10-04T03:43:46.069Z,1.60
2022-10-04T03:46:14.239Z,1.70
2022-10-04T03:48:45.869Z,2.37
2022-10-04T03:51:19.559Z,2.13
2022-10-04T03:53:49.632Z,1.73
2022-10-04T03:56:27.192Z,1.90
2022-10-04T03:58:55.068Z,2.50
2022-10-04T04:01:31.861Z,2.30
2022-10-04T04:04:22.030Z,2.37
2022-10-04T04:06:55.924Z,2.10
2022-10-04T04:09:33.165Z,1.90
2022-10-04T04:12:02.603Z,1.93
2022-10-04T04:14:29.286Z,2.20
2022-10-04T04:17:35.845Z,2.23
2022-10-04T04:20:07.725Z,2.03
2022-10-04T04:22:36.113Z,2.20
2022-10-04T04:25:09.033Z,1.97
2022-10-04T04:27:40.444Z,2.30
2022-10-04T04:30:08.825Z,2.70
2022-10-04T04:32:37.707Z,1.90
2022-10-04T04:35:08.358Z,2.07
2022-10-04T04:37:36.547Z,2.10
2022-10-04T04:40:24.856Z,2.37
2022-10-04T04:42:52.153Z,2.37
2022-10-04T04:45:31.212Z,2.50
2022-10-04T04:47:59.848Z,2.20
2022-10-04T04:50:31.015Z,2.43
2022-10-04T04:53:09.925Z,2.20
2022-10-04T04:56:02.797Z,2.23
2022-10-04T04:58:35.557Z,2.07
2022-10-04T05:01:06.781Z,2.47
2022-10-04T05:03:34.125Z,1.90
2022-10-04T05:06:02.835Z,2.10
2022-10-04T05:08:31.422Z,2.33
2022-10-04T05:10:57.893Z,2.40
2022-10-04T05:13:39.959Z,1.93
2022-10-04T05:16:13.833Z,2.20
2022-10-04T05:18:40.563Z,2.37
2022-10-04T05:21:22.750Z,2.30
2022-10-04T05:23:49.720Z,2.40
2022-10-04T05:26:26.139Z,1.87
2022-10-04T05:28:53.279Z,2.37
2022-10-04T05:31:43.412Z,2.33
2022-10-04T05:34:31.809Z,2.30
2022-10-04T05:37:06.511Z,1.93
2022-10-04T05:39:48.067Z,2.23
2022-10-04T05:42:23.381Z,2.30
2022-10-04T05:44:54.059Z,2.63
2022-10-04T05:47:24.935Z,2.43
2022-10-04T05:50:00.792Z,2.70
2022-10-04T05:52:35.934Z,2.40
2022-10-04T05:55:23.966Z,2.20
2022-10-04T05:58:19.279Z,2.27
2022-10-04T06:01:14.573Z,2.23
2022-10-04T06:03:59.895Z,2.20
2022-10-04T06:06:39.578Z,2.00
2022-10-04T06:09:22.577Z,2.43
2022-10-04T06:11:55.655Z,2.20
2022-10-04T06:14:47.675Z,2.37
2022-10-04T06:17:40.605Z,2.40
2022-10-04T06:20:24.285Z,2.50
2022-10-04T06:23:00.310Z,2.60
2022-10-04T06:25:37.396Z,2.80
2022-10-04T06:28:20.400Z,2.43
2022-10-04T06:31:21.045Z,2.53
2022-10-04T06:33:57.394Z,2.00
2022-10-04T06:36:47.885Z,2.40
2022-10-04T06:39:35.513Z,2.30
2022-10-04T06:42:13.592Z,2.50
2022-10-04T06:45:00.520Z,2.90
2022-10-04T06:47:43.199Z,2.73
2022-10-04T06:50:31.691Z,2.70
2022-10-04T06:53:16.444Z,2.43
2022-10-04T06:55:48.341Z,2.63
2022-10-04T06:58:40.932Z,2.20
2022-10-04T07:01:43.110Z,2.90
2022-10-04T07:04:45.049Z,2.10
2022-10-04T07:07:36.232Z,2.40
2022-10-04T07:10:17.825Z,3.17
2022-10-04T07:13:13.234Z,5.23
2022-10-04T07:15:54.269Z,3.93
2022-10-04T07:18:28.933Z,3.33
2022-10-04T07:21:08.342Z,3.43
2022-10-04T07:23:44.187Z,3.10
2022-10-04T07:26:53.859Z,2.93
2022-10-04T07:29:31.985Z,3.40
2022-10-04T07:32:05.485Z,3.43
2022-10-04T07:34:52.431Z,3.80
2022-10-04T07:37:21.029Z,3.20
2022-10-04T07:40:24.846Z,3.10
2022-10-04T07:42:59.833Z,2.83
2022-10-04T07:45:32.681Z,3.10
2022-10-04T07:48:09.991Z,3.20
2022-10-04T07:50:58.084Z,3.57
2022-10-04T07:53:47.938Z,2.63
2022-10-04T07:56:45.637Z,2.83
2022-10-04T07:59:42.853Z,2.83
2022-10-04T08:02:30.979Z,2.93
2022-10-04T08:05:15.737Z,3.07
2022-10-04T08:08:13.014Z,3.23
2022-10-04T08:11:12.704Z,3.23
2022-10-04T08:13:52.402Z,2.97
2022-10-04T08:16:31.056Z,3.30
2022-10-04T08:19:12.507Z,3.23
2022-10-04T08:22:02.043Z,3.73
2022-10-04T08:24:34.333Z,3.23
2022-10-04T08:27:31.069Z,3.13
2022-10-04T08:30:16.556Z,2.90
2022-10-04T08:32:51.144Z,3.00
2022-10-04T08:35:30.191Z,7.87
2022-10-04T08:38:12.652Z,4.83
2022-10-04T08:41:00.911Z,4.10
2022-10-04T08:43:43.090Z,4.13
2022-10-04T08:46:40.991Z,4.90
2022-10-04T08:49:43.846Z,4.47
2022-10-04T08:52:45.824Z,4.40
2022-10-04T08:55:34.941Z,4.00
2022-10-04T08:58:13.873Z,3.93
2022-10-04T09:01:11.066Z,3.80
2022-10-04T09:04:15.049Z,3.70
2022-10-04T09:06:50.958Z,4.17
2022-10-04T09:09:29.737Z,3.90
2022-10-04T09:12:20.090Z,3.60
2022-10-04T09:14:56.112Z,3.93
2022-10-04T09:17:50.857Z,3.50
2022-10-04T09:20:40.034Z,3.60
2022-10-04T09:23:30.641Z,3.40
2022-10-04T09:26:23.878Z,3.60
2022-10-04T09:29:18.281Z,2.90
2022-10-04T09:32:03.407Z,3.27
2022-10-04T09:35:06.221Z,2.90
2022-10-04T09:37:51.375Z,3.53
2022-10-04T09:40:36.843Z,2.97
2022-10-04T09:43:29.084Z,3.37
2022-10-04T09:46:37.399Z,2.90
2022-10-04T09:49:14.413Z,3.00
2022-10-04T09:52:01.953Z,3.10
2022-10-04T09:54:47.569Z,3.57
2022-10-04T09:57:33.442Z,3.30
2022-10-04T10:00:28.264Z,3.20
2022-10-04T10:03:17.211Z,3.20
2022-10-04T10:06:24.380Z,2.60
2022-10-04T10:09:02.552Z,3.40
2022-10-04T10:12:05.505Z,3.33
2022-10-04T10:14:56.752Z,3.37
2022-10-04T10:17:47.697Z,3.37
2022-10-04T10:20:32.893Z,3.40
2022-10-04T10:23:34.261Z,3.20
2022-10-04T10:26:22.781Z,3.33
2022-10-04T10:29:26.388Z,3.20
2022-10-04T10:32:17.774Z,2.80
2022-10-04T10:35:10.141Z,2.93
2022-10-04T10:38:18.973Z,3.50
2022-10-04T10:41:19.136Z,2.90
2022-10-04T10:44:02.271Z,3.20
2022-10-04T10:46:58.289Z,2.80
2022-10-04T10:49:53.815Z,5.27
2022-10-04T10:52:57.384Z,10.60
2022-10-04T10:55:42.571Z,21.40
2022-10-04T10:58:53.501Z,28.93
2022-10-04T11:02:10.481Z,28.40
2022-10-04T11:04:57.792Z,29.13
2022-10-04T11:07:55.221Z,18.57
2022-10-04T11:11:11.290Z,12.50
2022-10-04T11:13:54.203Z,10.37
2022-10-04T11:16:50.042Z,11.30
2022-10-04T11:19:50.241Z,7.23
2022-10-04T11:22:54.219Z,10.10
2022-10-04T11:25:46.917Z,10.27
2022-10-04T11:28:19.701Z,7.90
2022-10-04T11:30:58.390Z,7.20
2022-10-04T11:34:16.364Z,10.07
2022-10-04T11:37:26.959Z,7.73
2022-10-04T11:40:23.532Z,10.57
2022-10-04T11:43:06.809Z,8.53
2022-10-04T11:46:12.237Z,6.70
2022-10-04T11:49:06.026Z,6.27
2022-10-04T11:52:17.555Z,5.20
2022-10-04T11:55:14.038Z,6.00
2022-10-04T11:57:52.385Z,7.10
2022-10-04T12:04:21.354Z,6.30
2022-10-04T12:07:35.878Z,5.80
2022-10-04T12:10:21.172Z,6.13
2022-10-04T12:13:38.376Z,6.50
2022-10-04T12:16:36.955Z,6.00
2022-10-04T12:19:20.814Z,5.33
2022-10-04T12:22:01.491Z,5.50
2022-10-04T12:24:57.829Z,5.60
2022-10-04T12:27:43.178Z,4.63
2022-10-04T12:30:53.856Z,3.73
2022-10-04T12:33:31.400Z,4.37
2022-10-04T12:36:24.536Z,4.50
2022-10-04T12:39:11.435Z,4.37
2022-10-04T12:42:07.627Z,4.07
2022-10-04T12:44:34.479Z,3.87
2022-10-04T12:47:10.179Z,3.10
2022-10-04T12:49:55.030Z,2.90
2022-10-04T12:52:25.354Z,2.57
2022-10-04T12:55:02.097Z,3.40
2022-10-04T12:57:37.952Z,2.37
2022-10-04T13:00:16.379Z,2.93
2022-10-04T13:03:02.404Z,2.60
2022-10-04T13:05:48.440Z,2.50
2022-10-04T13:08:39.679Z,2.87
2022-10-04T13:11:24.225Z,3.10
2022-10-04T13:14:28.221Z,2.40
2022-10-04T13:17:35.955Z,2.70
2022-10-04T13:20:20.732Z,2.50
2022-10-04T13:22:57.884Z,2.20
2022-10-04T13:25:46.629Z,2.17
2022-10-04T13:28:26.307Z,2.17
2022-10-04T13:31:24.287Z,2.93
2022-10-04T13:34:23.955Z,4.07
2022-10-04T13:37:16.657Z,2.00
2022-10-04T13:40:04.842Z,2.00
2022-10-04T13:42:53.441Z,2.10
2022-10-04T13:45:58.900Z,2.67
2022-10-04T13:48:50.890Z,2.57
2022-10-04T13:51:48.432Z,2.40
2022-10-04T13:54:55.910Z,1.93
2022-10-04T13:57:41.640Z,2.27
2022-10-04T14:00:15.042Z,3.53
2022-10-04T14:03:12.026Z,2.23
2022-10-04T14:06:19.895Z,2.03
2022-10-04T14:09:13.123Z,2.23
2022-10-04T14:12:04.167Z,2.43
2022-10-04T14:14:40.234Z,2.93
2022-10-04T14:17:42.907Z,1.87
2022-10-04T14:20:39.025Z,2.10
2022-10-04T14:23:53.776Z,2.50
2022-10-04T14:26:39.402Z,1.97
2022-10-04T14:29:28.712Z,2.10
2022-10-04T14:32:20.186Z,2.13
2022-10-04T14:35:02.274Z,2.23
2022-10-04T14:37:38.775Z,2.00
2022-10-04T14:40:32.955Z,2.87
2022-10-04T14:43:21.035Z,2.20
2022-10-04T14:46:08.630Z,2.27
2022-10-04T14:49:05.038Z,2.50
2022-10-04T14:51:37.668Z,2.10
2022-10-04T14:54:11.904Z,2.60
2022-10-04T14:56:58.927Z,2.23
2022-10-04T15:00:04.274Z,2.50
2022-10-04T15:02:33.883Z,2.10
2022-10-04T15:05:22.761Z,2.80
2022-10-04T15:08:15.827Z,2.17
2022-10-04T15:10:52.184Z,2.30
2022-10-04T15:13:22.155Z,2.30
2022-10-04T15:16:12.924Z,2.60
2022-10-04T15:18:41.012Z,2.43
2022-10-04T15:21:33.653Z,2.10
2022-10-04T15:24:15.543Z,1.90
2022-10-04T15:27:21.033Z,2.23
2022-10-04T15:30:10.225Z,2.10
2022-10-04T15:33:13.782Z,2.60
2022-10-04T15:35:58.736Z,2.17
2022-10-04T15:38:32.784Z,3.03
2022-10-04T15:41:29.379Z,2.27
2022-10-04T15:44:11.562Z,2.77
2022-10-04T15:46:56.446Z,2.50
2022-10-04T15:49:26.052Z,2.63
2022-10-04T15:52:16.967Z,2.07
2022-10-04T15:55:20.905Z,2.80
2022-10-04T15:57:47.392Z,2.27
2022-10-04T16:00:46.907Z,2.33
2022-10-04T16:03:47.408Z,2.30
2022-10-04T16:06:28.448Z,2.20
2022-10-04T16:09:19.751Z,2.40
2022-10-04T16:12:08.273Z,2.17
2022-10-04T16:15:15.644Z,2.40
2022-10-04T16:17:51.292Z,2.67
2022-10-04T16:20:36.209Z,2.47
2022-10-04T16:23:23.938Z,3.03
2022-10-04T16:25:52.334Z,2.60
2022-10-04T16:28:31.093Z,2.77
2022-10-04T16:31:20.557Z,3.10
2022-10-04T16:34:07.114Z,2.70
2022-10-04T16:36:55.098Z,2.73
2022-10-04T16:40:02.464Z,2.93
2022-10-04T16:42:54.879Z,3.10
2022-10-04T16:45:36.467Z,3.23
2022-10-04T16:48:22.543Z,3.17
2022-10-04T16:51:23.111Z,3.37
2022-10-04T16:54:09.157Z,3.60
2022-10-04T16:56:56.192Z,3.17
2022-10-04T16:59:38.057Z,2.53
2022-10-04T17:02:23.528Z,2.93
2022-10-04T17:05:02.130Z,2.87
2022-10-04T17:07:38.107Z,4.33
2022-10-04T17:10:19.942Z,2.63
2022-10-04T17:13:06.689Z,2.57
2022-10-04T17:15:33.197Z,2.90
2022-10-04T17:18:08.236Z,2.77
2022-10-04T17:20:44.052Z,2.53
2022-10-04T17:23:16.344Z,2.50
2022-10-04T17:25:52.106Z,2.50
2022-10-04T17:28:35.265Z,2.90
2022-10-04T17:31:42.785Z,2.30
2022-10-04T17:34:36.078Z,2.53
2022-10-04T17:37:20.738Z,2.40
2022-10-04T17:40:13.276Z,2.80
2022-10-04T17:42:43.283Z,2.37
2022-10-04T17:45:32.058Z,2.57
2022-10-04T17:48:32.843Z,2.20
2022-10-04T17:51:55.596Z,2.17
2022-10-04T17:54:55.103Z,2.33
2022-10-04T17:57:52.185Z,2.50
2022-10-04T18:00:28.432Z,2.10
2022-10-04T18:02:59.702Z,2.80
2022-10-04T18:05:41.550Z,2.60
2022-10-04T18:08:11.226Z,1.90
2022-10-04T18:10:48.192Z,2.17
2022-10-04T18:13:27.766Z,2.17
2022-10-04T18:16:24.489Z,2.10
2022-10-04T18:18:51.180Z,2.33
2022-10-04T18:21:32.300Z,2.30
2022-10-04T18:24:17.366Z,2.70
2022-10-04T18:27:15.313Z,1.97
2022-10-04T18:29:44.320Z,2.30
2022-10-04T18:32:26.053Z,2.30
2022-10-04T18:34:57.891Z,2.20
2022-10-04T18:37:38.632Z,2.40
2022-10-04T18:40:21.365Z,2.33
2022-10-04T18:42:57.786Z,1.90
2022-10-04T18:45:25.624Z,2.40
2022-10-04T18:47:53.172Z,2.40
2022-10-04T18:50:29.155Z,2.10
2022-10-04T18:53:13.425Z,6.13
2022-10-04T18:55:55.101Z,6.37
2022-10-04T18:59:07.016Z,6.50
2022-10-04T19:02:03.040Z,5.13
2022-10-04T19:04:35.504Z,5.23
2022-10-04T19:07:46.398Z,4.90
2022-10-04T19:10:27.337Z,4.50
2022-10-04T19:13:18.485Z,3.77
2022-10-04T19:16:12.484Z,3.67
2022-10-04T19:19:01.203Z,3.60
2022-10-04T19:21:37.419Z,3.40
2022-10-04T19:24:31.614Z,3.23
2022-10-04T19:27:02.127Z,3.03
2022-10-04T19:29:37.510Z,3.00
2022-10-04T19:32:08.926Z,6.23
2022-10-04T19:35:01.733Z,5.23
2022-10-04T19:37:46.477Z,3.80
2022-10-04T19:40:44.246Z,4.03
2022-10-04T19:43:15.597Z,3.93
2022-10-04T19:46:06.749Z,3.13
2022-10-04T19:48:43.600Z,3.80
2022-10-04T19:51:24.343Z,3.30
2022-10-04T19:53:57.570Z,3.60
2022-10-04T19:56:29.348Z,3.30
2022-10-04T19:59:18.460Z,3.10
2022-10-04T20:01:45.861Z,3.43
2022-10-04T20:04:35.565Z,3.57
2022-10-04T20:07:17.648Z,3.60
2022-10-04T20:09:47.743Z,3.37
2022-10-04T20:12:35.420Z,3.00
2022-10-04T20:15:17.121Z,3.10
2022-10-04T20:17:45.481Z,2.93
2022-10-04T20:20:37.000Z,3.20
2022-10-04T20:23:03.838Z,3.20
2022-10-04T20:25:45.702Z,3.60
2022-10-04T20:28:27.308Z,3.07
2022-10-04T20:30:58.689Z,3.10
2022-10-04T20:33:34.405Z,3.47
2022-10-04T20:36:02.019Z,3.50
2022-10-04T20:38:48.155Z,3.43
2022-10-04T20:41:52.559Z,3.57
2022-10-04T20:44:42.805Z,2.90
2022-10-04T20:47:42.455Z,3.27
2022-10-04T20:50:33.569Z,3.37
2022-10-04T20:53:04.185Z,3.20
2022-10-04T20:55:38.840Z,2.93
2022-10-04T20:58:21.681Z,3.10
2022-10-04T21:00:54.063Z,2.70
2022-10-04T21:03:21.817Z,3.53
2022-10-04T21:06:08.132Z,3.47
2022-10-04T21:08:36.074Z,3.20
2022-10-04T21:11:20.078Z,3.30
2022-10-04T21:13:54.665Z,2.83
2022-10-04T21:16:42.167Z,3.40
2022-10-04T21:19:33.557Z,3.20
2022-10-04T21:22:07.887Z,3.23
2022-10-04T21:24:41.405Z,3.27
2022-10-04T21:27:24.828Z,2.93
2022-10-04T21:29:54.169Z,3.00
2022-10-04T21:32:21.303Z,2.70
2022-10-04T21:34:53.434Z,2.97
2022-10-04T21:37:20.925Z,2.93
2022-10-04T21:39:47.587Z,3.47
2022-10-04T21:42:14.114Z,3.33
2022-10-04T21:44:40.730Z,2.50
2022-10-04T21:47:07.263Z,2.90
2022-10-04T21:49:33.849Z,2.97
2022-10-04T21:52:00.459Z,2.83
2022-10-04T21:54:27.029Z,2.50
2022-10-04T21:56:53.977Z,2.57
2022-10-04T21:59:21.207Z,2.80
2022-10-04T22:01:47.765Z,2.80
2022-10-04T22:04:14.313Z,3.00
2022-10-04T22:06:41.205Z,2.53
2022-10-04T22:09:08.290Z,2.70
2022-10-04T22:11:35.098Z,2.83
2022-10-04T22:14:01.779Z,3.57
2022-10-04T22:16:28.531Z,3.00
2022-10-04T22:18:55.179Z,3.40
2022-10-04T22:21:21.842Z,3.17
2022-10-04T22:23:48.498Z,3.33
2022-10-04T22:26:17.736Z,2.90
2022-10-04T22:28:47.465Z,2.70
2022-10-04T22:31:16.978Z,2.97
2022-10-04T22:33:45.820Z,3.07
2022-10-04T22:36:33.809Z,3.07
2022-10-04T22:39:09.187Z,2.97
2022-10-04T22:41:40.160Z,3.37
2022-10-04T22:44:24.041Z,2.97
2022-10-04T22:46:55.933Z,2.60
2022-10-04T22:49:31.769Z,3.20
2022-10-04T22:52:00.387Z,3.57
2022-10-04T22:54:31.292Z,3.57
2022-10-04T22:56:58.571Z,3.00
2022-10-04T22:59:35.069Z,2.97
2022-10-04T23:02:12.909Z,3.00
2022-10-04T23:04:41.374Z,3.30
2022-10-04T23:07:08.016Z,2.50
2022-10-04T23:09:34.602Z,2.60
2022-10-04T23:12:01.208Z,3.23
2022-10-04T23:14:27.741Z,2.50
2022-10-04T23:16:54.271Z,3.40
2022-10-04T23:19:20.801Z,2.97
2022-10-04T23:21:49.389Z,2.50
2022-10-04T23:24:18.710Z,2.90
2022-10-04T23:26:49.083Z,2.40
2022-10-04T23:29:25.959Z,2.93
2022-10-04T23:31:52.765Z,3.00
2022-10-04T23:34:26.193Z,2.73
2022-10-04T23:36:52.867Z,2.80
2022-10-04T23:39:25.562Z,3.03
2022-10-04T23:41:53.921Z,3.07
2022-10-04T23:44:23.410Z,3.20
2022-10-04T23:46:50.685Z,2.90
2022-10-04T23:49:20.059Z,2.90
2022-10-04T23:51:47.976Z,2.60
2022-10-04T23:54:17.692Z,3.07
2022-10-04T23:56:45.520Z,3.03
2022-10-04T23:59:18.752Z,2.57
